sensor_id;sensor_type;location;lat;lon;timestamp;P1;durP1;ratioP1;P2;durP2;ratioP2
1370;SDS011;14306;49.942;11.570;2024-02-26T00:01:04;7.50;;;4.95;;
1370;SDS011;14306;49.942;11.570;2024-02-26T00:02:37;7.25;;;5.55;;
1370;SDS011;14306;49.942;11.570;2024-02-26T00:04:12;6.88;;;4.95;;
1370;SDS011;14306;49.942;11.570;2024-02-26T00:05:46;6.45;;;4.72;;
1370;SDS011;14306;49.942;11.570;2024-02-26T00:07:21;9.07;;;5.15;;
1370;SDS011;14306;49.942;11.570;2024-02-26T00:08:54;6.95;;;4.90;;
1370;SDS011;14306;49.942;11.570;2024-02-26T00:10:29;9.13;;;4.80;;
1370;SDS011;14306;49.942;11.570;2024-02-26T00:12:04;6.55;;;4.60;;
1370;SDS011;14306;49.942;11.570;2024-02-26T00:13:38;7.20;;;5.18;;
1370;SDS011;14306;49.942;11.570;2024-02-26T00:15:11;8.23;;;5.15;;
1370;SDS011;14306;49.942;11.570;2024-02-26T00:16:46;7.63;;;5.15;;
1370;SDS011;14306;49.942;11.570;2024-02-26T00:18:21;7.97;;;4.70;;
1370;SDS011;14306;49.942;11.570;2024-02-26T00:19:54;6.25;;;4.60;;
1370;SDS011;14306;49.942;11.570;2024-02-26T00:21:28;6.55;;;4.25;;
1370;SDS011;14306;49.942;11.570;2024-02-26T00:23:01;6.75;;;4.45;;
1370;SDS011;14306;49.942;11.570;2024-02-26T00:24:36;6.80;;;6.00;;
1370;SDS011;14306;49.942;11.570;2024-02-26T00:26:11;6.57;;;4.85;;
1370;SDS011;14306;49.942;11.570;2024-02-26T00:27:45;7.05;;;4.28;;
1370;SDS011;14306;49.942;11.570;2024-02-26T00:29:18;8.55;;;4.53;;
1370;SDS011;14306;49.942;11.570;2024-02-26T00:30:52;7.82;;;5.25;;
1370;SDS011;14306;49.942;11.570;2024-02-26T00:32:28;7.88;;;4.65;;
1370;SDS011;14306;49.942;11.570;2024-02-26T00:34:01;7.18;;;4.95;;
1370;SDS011;14306;49.942;11.570;2024-02-26T00:35:36;6.75;;;4.70;;
1370;SDS011;14306;49.942;11.570;2024-02-26T00:37:09;6.05;;;4.78;;
1370;SDS011;14306;49.942;11.570;2024-02-26T00:38:44;6.40;;;4.65;;
1370;SDS011;14306;49.942;11.570;2024-02-26T00:40:23;7.72;;;4.63;;
1370;SDS011;14306;49.942;11.570;2024-02-26T00:41:58;5.32;;;4.47;;
1370;SDS011;14306;49.942;11.570;2024-02-26T00:43:32;5.78;;;4.70;;
1370;SDS011;14306;49.942;11.570;2024-02-26T00:45:06;5.70;;;4.40;;
1370;SDS011;14306;49.942;11.570;2024-02-26T00:46:41;5.90;;;4.20;;
1370;SDS011;14306;49.942;11.570;2024-02-26T00:48:15;7.53;;;4.80;;
1370;SDS011;14306;49.942;11.570;2024-02-26T00:49:48;7.30;;;4.45;;
1370;SDS011;14306;49.942;11.570;2024-02-26T00:51:23;6.20;;;4.60;;
1370;SDS011;14306;49.942;11.570;2024-02-26T00:52:57;8.82;;;4.88;;
1370;SDS011;14306;49.942;11.570;2024-02-26T00:54:30;7.25;;;4.57;;
1370;SDS011;14306;49.942;11.570;2024-02-26T00:56:05;6.60;;;4.80;;
1370;SDS011;14306;49.942;11.570;2024-02-26T00:57:40;4.88;;;4.47;;
1370;SDS011;14306;49.942;11.570;2024-02-26T00:59:14;4.97;;;3.85;;
1370;SDS011;14306;49.942;11.570;2024-02-26T01:00:47;10.15;;;4.22;;
1370;SDS011;14306;49.942;11.570;2024-02-26T01:02:22;6.82;;;4.10;;
1370;SDS011;14306;49.942;11.570;2024-02-26T01:03:55;5.20;;;3.90;;
1370;SDS011;14306;49.942;11.570;2024-02-26T01:05:29;5.03;;;4.40;;
1370;SDS011;14306;49.942;11.570;2024-02-26T01:07:02;6.93;;;4.38;;
1370;SDS011;14306;49.942;11.570;2024-02-26T01:08:37;4.95;;;4.35;;
1370;SDS011;14306;49.942;11.570;2024-02-26T01:10:10;6.63;;;4.55;;
1370;SDS011;14306;49.942;11.570;2024-02-26T01:11:44;5.50;;;5.00;;
1370;SDS011;14306;49.942;11.570;2024-02-26T01:13:19;6.85;;;4.88;;
1370;SDS011;14306;49.942;11.570;2024-02-26T01:14:53;6.05;;;4.35;;
1370;SDS011;14306;49.942;11.570;2024-02-26T01:16:27;8.07;;;4.65;;
1370;SDS011;14306;49.942;11.570;2024-02-26T01:18:03;4.25;;;3.33;;
1370;SDS011;14306;49.942;11.570;2024-02-26T01:19:37;7.28;;;5.43;;
1370;SDS011;14306;49.942;11.570;2024-02-26T01:21:12;5.90;;;5.13;;
1370;SDS011;14306;49.942;11.570;2024-02-26T01:22:45;4.28;;;3.53;;
1370;SDS011;14306;49.942;11.570;2024-02-26T01:24:19;6.28;;;4.93;;
1370;SDS011;14306;49.942;11.570;2024-02-26T01:25:52;4.85;;;4.07;;
1370;SDS011;14306;49.942;11.570;2024-02-26T01:27:27;7.40;;;4.30;;
1370;SDS011;14306;49.942;11.570;2024-02-26T01:29:02;5.68;;;4.00;;
1370;SDS011;14306;49.942;11.570;2024-02-26T01:30:36;5.90;;;4.32;;
1370;SDS011;14306;49.942;11.570;2024-02-26T01:32:09;7.32;;;4.80;;
1370;SDS011;14306;49.942;11.570;2024-02-26T01:33:44;7.43;;;4.30;;
1370;SDS011;14306;49.942;11.570;2024-02-26T01:35:18;6.82;;;4.15;;
1370;SDS011;14306;49.942;11.570;2024-02-26T01:36:52;5.53;;;4.00;;
1370;SDS011;14306;49.942;11.570;2024-02-26T01:38:25;5.50;;;4.38;;
1370;SDS011;14306;49.942;11.570;2024-02-26T01:40:00;5.40;;;4.25;;
1370;SDS011;14306;49.942;11.570;2024-02-26T01:41:36;6.50;;;4.35;;
1370;SDS011;14306;49.942;11.570;2024-02-26T01:43:10;4.75;;;3.70;;
1370;SDS011;14306;49.942;11.570;2024-02-26T01:44:44;6.93;;;4.18;;
1370;SDS011;14306;49.942;11.570;2024-02-26T01:46:19;5.47;;;4.88;;
1370;SDS011;14306;49.942;11.570;2024-02-26T01:47:54;6.35;;;3.63;;
1370;SDS011;14306;49.942;11.570;2024-02-26T01:49:28;9.15;;;5.40;;
1370;SDS011;14306;49.942;11.570;2024-02-26T01:51:03;5.00;;;4.50;;
1370;SDS011;14306;49.942;11.570;2024-02-26T01:52:37;10.35;;;4.28;;
1370;SDS011;14306;49.942;11.570;2024-02-26T01:54:11;5.30;;;4.07;;
1370;SDS011;14306;49.942;11.570;2024-02-26T01:55:44;6.30;;;4.53;;
1370;SDS011;14306;49.942;11.570;2024-02-26T01:57:18;12.05;;;4.47;;
1370;SDS011;14306;49.942;11.570;2024-02-26T01:58:52;7.63;;;4.40;;
1370;SDS011;14306;49.942;11.570;2024-02-26T02:00:28;8.25;;;4.57;;
1370;SDS011;14306;49.942;11.570;2024-02-26T02:02:01;7.28;;;3.95;;
1370;SDS011;14306;49.942;11.570;2024-02-26T02:03:39;5.97;;;4.10;;
1370;SDS011;14306;49.942;11.570;2024-02-26T02:05:15;6.80;;;4.72;;
1370;SDS011;14306;49.942;11.570;2024-02-26T02:06:50;5.63;;;3.83;;
1370;SDS011;14306;49.942;11.570;2024-02-26T02:08:25;6.82;;;4.72;;
1370;SDS011;14306;49.942;11.570;2024-02-26T02:10:01;7.03;;;4.22;;
1370;SDS011;14306;49.942;11.570;2024-02-26T02:11:35;4.55;;;3.75;;
1370;SDS011;14306;49.942;11.570;2024-02-26T02:13:10;4.72;;;3.78;;
1370;SDS011;14306;49.942;11.570;2024-02-26T02:14:43;6.18;;;4.22;;
1370;SDS011;14306;49.942;11.570;2024-02-26T02:16:18;8.43;;;4.40;;
1370;SDS011;14306;49.942;11.570;2024-02-26T02:17:52;6.38;;;4.22;;
1370;SDS011;14306;49.942;11.570;2024-02-26T02:19:26;6.00;;;4.90;;
1370;SDS011;14306;49.942;11.570;2024-02-26T02:21:01;5.65;;;4.15;;
1370;SDS011;14306;49.942;11.570;2024-02-26T02:22:35;6.40;;;3.92;;
1370;SDS011;14306;49.942;11.570;2024-02-26T02:24:09;8.38;;;4.13;;
1370;SDS011;14306;49.942;11.570;2024-02-26T02:25:43;4.65;;;3.75;;
1370;SDS011;14306;49.942;11.570;2024-02-26T02:27:16;5.55;;;3.83;;
1370;SDS011;14306;49.942;11.570;2024-02-26T02:28:51;4.07;;;3.67;;
1370;SDS011;14306;49.942;11.570;2024-02-26T02:30:25;5.63;;;4.10;;
1370;SDS011;14306;49.942;11.570;2024-02-26T02:32:02;5.22;;;3.80;;
1370;SDS011;14306;49.942;11.570;2024-02-26T02:33:37;5.45;;;4.20;;
1370;SDS011;14306;49.942;11.570;2024-02-26T02:35:11;6.40;;;4.43;;
1370;SDS011;14306;49.942;11.570;2024-02-26T02:36:52;9.43;;;5.60;;
1370;SDS011;14306;49.942;11.570;2024-02-26T02:38:25;6.35;;;3.58;;
1370;SDS011;14306;49.942;11.570;2024-02-26T02:40:02;6.07;;;4.53;;
1370;SDS011;14306;49.942;11.570;2024-02-26T02:41:35;5.15;;;4.68;;
1370;SDS011;14306;49.942;11.570;2024-02-26T02:43:10;9.05;;;5.10;;
1370;SDS011;14306;49.942;11.570;2024-02-26T02:44:43;5.32;;;3.85;;
1370;SDS011;14306;49.942;11.570;2024-02-26T02:46:17;7.18;;;5.32;;
1370;SDS011;14306;49.942;11.570;2024-02-26T02:47:50;4.72;;;4.28;;
1370;SDS011;14306;49.942;11.570;2024-02-26T02:49:25;6.57;;;5.22;;
1370;SDS011;14306;49.942;11.570;2024-02-26T02:50:59;6.63;;;4.95;;
1370;SDS011;14306;49.942;11.570;2024-02-26T02:52:34;8.98;;;4.65;;
1370;SDS011;14306;49.942;11.570;2024-02-26T02:54:08;6.85;;;4.45;;
1370;SDS011;14306;49.942;11.570;2024-02-26T02:55:42;6.15;;;4.07;;
1370;SDS011;14306;49.942;11.570;2024-02-26T02:57:15;6.68;;;4.80;;
1370;SDS011;14306;49.942;11.570;2024-02-26T02:58:49;5.43;;;4.15;;
1370;SDS011;14306;49.942;11.570;2024-02-26T03:00:22;4.90;;;4.07;;
1370;SDS011;14306;49.942;11.570;2024-02-26T03:01:57;9.38;;;4.22;;
1370;SDS011;14306;49.942;11.570;2024-02-26T03:03:29;5.85;;;4.82;;
1370;SDS011;14306;49.942;11.570;2024-02-26T03:05:17;8.25;;;4.90;;
1370;SDS011;14306;49.942;11.570;2024-02-26T03:06:51;6.82;;;4.53;;
1370;SDS011;14306;49.942;11.570;2024-02-26T03:08:27;8.80;;;4.72;;
1370;SDS011;14306;49.942;11.570;2024-02-26T03:10:02;7.05;;;5.97;;
1370;SDS011;14306;49.942;11.570;2024-02-26T03:11:35;12.02;;;5.22;;
1370;SDS011;14306;49.942;11.570;2024-02-26T03:13:09;8.10;;;5.38;;
1370;SDS011;14306;49.942;11.570;2024-02-26T03:14:43;7.57;;;4.90;;
1370;SDS011;14306;49.942;11.570;2024-02-26T03:16:17;8.85;;;5.55;;
1370;SDS011;14306;49.942;11.570;2024-02-26T03:17:50;7.55;;;5.65;;
1370;SDS011;14306;49.942;11.570;2024-02-26T03:19:24;6.70;;;5.45;;
1370;SDS011;14306;49.942;11.570;2024-02-26T03:20:58;8.48;;;5.10;;
1370;SDS011;14306;49.942;11.570;2024-02-26T03:22:32;7.28;;;4.72;;
1370;SDS011;14306;49.942;11.570;2024-02-26T03:24:08;6.60;;;4.38;;
1370;SDS011;14306;49.942;11.570;2024-02-26T03:25:44;5.60;;;4.88;;
1370;SDS011;14306;49.942;11.570;2024-02-26T03:27:23;6.35;;;4.15;;
1370;SDS011;14306;49.942;11.570;2024-02-26T03:28:56;11.15;;;6.40;;
1370;SDS011;14306;49.942;11.570;2024-02-26T03:30:31;7.80;;;5.03;;
1370;SDS011;14306;49.942;11.570;2024-02-26T03:32:04;10.05;;;4.57;;
1370;SDS011;14306;49.942;11.570;2024-02-26T03:33:39;6.75;;;4.80;;
1370;SDS011;14306;49.942;11.570;2024-02-26T03:35:13;8.82;;;4.82;;
1370;SDS011;14306;49.942;11.570;2024-02-26T03:36:47;6.55;;;4.50;;
1370;SDS011;14306;49.942;11.570;2024-02-26T03:38:21;8.63;;;5.47;;
1370;SDS011;14306;49.942;11.570;2024-02-26T03:39:56;6.93;;;4.50;;
1370;SDS011;14306;49.942;11.570;2024-02-26T03:41:30;6.70;;;4.20;;
1370;SDS011;14306;49.942;11.570;2024-02-26T03:43:04;5.13;;;3.80;;
1370;SDS011;14306;49.942;11.570;2024-02-26T03:44:40;5.80;;;3.90;;
1370;SDS011;14306;49.942;11.570;2024-02-26T03:46:14;5.38;;;3.78;;
1370;SDS011;14306;49.942;11.570;2024-02-26T03:47:47;6.38;;;3.90;;
1370;SDS011;14306;49.942;11.570;2024-02-26T03:49:22;11.73;;;4.80;;
1370;SDS011;14306;49.942;11.570;2024-02-26T03:50:55;5.55;;;4.28;;
1370;SDS011;14306;49.942;11.570;2024-02-26T03:52:29;6.07;;;4.80;;
1370;SDS011;14306;49.942;11.570;2024-02-26T03:54:02;5.18;;;3.80;;
1370;SDS011;14306;49.942;11.570;2024-02-26T03:55:38;9.40;;;3.55;;
1370;SDS011;14306;49.942;11.570;2024-02-26T03:57:14;6.55;;;4.00;;
1370;SDS011;14306;49.942;11.570;2024-02-26T03:58:48;4.28;;;3.70;;
1370;SDS011;14306;49.942;11.570;2024-02-26T04:00:21;5.13;;;3.95;;
1370;SDS011;14306;49.942;11.570;2024-02-26T04:01:56;6.75;;;3.42;;
1370;SDS011;14306;49.942;11.570;2024-02-26T04:03:29;8.32;;;4.50;;
1370;SDS011;14306;49.942;11.570;2024-02-26T04:05:04;4.32;;;3.92;;
1370;SDS011;14306;49.942;11.570;2024-02-26T04:06:37;4.28;;;3.88;;
1370;SDS011;14306;49.942;11.570;2024-02-26T04:08:11;8.70;;;4.93;;
1370;SDS011;14306;49.942;11.570;2024-02-26T04:09:45;11.65;;;5.40;;
1370;SDS011;14306;49.942;11.570;2024-02-26T04:11:20;8.38;;;4.93;;
1370;SDS011;14306;49.942;11.570;2024-02-26T04:12:54;4.85;;;3.90;;
1370;SDS011;14306;49.942;11.570;2024-02-26T04:14:28;6.70;;;4.30;;
1370;SDS011;14306;49.942;11.570;2024-02-26T04:16:01;4.13;;;3.70;;
1370;SDS011;14306;49.942;11.570;2024-02-26T04:17:36;6.93;;;4.20;;
1370;SDS011;14306;49.942;11.570;2024-02-26T04:19:09;3.50;;;3.20;;
1370;SDS011;14306;49.942;11.570;2024-02-26T04:20:44;8.98;;;4.70;;
1370;SDS011;14306;49.942;11.570;2024-02-26T04:22:18;7.18;;;4.00;;
1370;SDS011;14306;49.942;11.570;2024-02-26T04:23:51;4.32;;;3.33;;
1370;SDS011;14306;49.942;11.570;2024-02-26T04:25:27;7.50;;;4.55;;
1370;SDS011;14306;49.942;11.570;2024-02-26T04:27:02;6.00;;;3.50;;
1370;SDS011;14306;49.942;11.570;2024-02-26T04:28:37;4.63;;;3.70;;
1370;SDS011;14306;49.942;11.570;2024-02-26T04:30:11;8.23;;;4.45;;
1370;SDS011;14306;49.942;11.570;2024-02-26T04:31:45;4.53;;;3.83;;
1370;SDS011;14306;49.942;11.570;2024-02-26T04:33:19;4.60;;;3.47;;
1370;SDS011;14306;49.942;11.570;2024-02-26T04:34:53;4.85;;;3.35;;
1370;SDS011;14306;49.942;11.570;2024-02-26T04:36:27;11.50;;;4.55;;
1370;SDS011;14306;49.942;11.570;2024-02-26T04:38:01;5.63;;;4.25;;
1370;SDS011;14306;49.942;11.570;2024-02-26T04:39:35;5.30;;;3.70;;
1370;SDS011;14306;49.942;11.570;2024-02-26T04:41:08;6.40;;;4.13;;
1370;SDS011;14306;49.942;11.570;2024-02-26T04:42:43;5.65;;;4.03;;
1370;SDS011;14306;49.942;11.570;2024-02-26T04:44:16;4.93;;;3.90;;
1370;SDS011;14306;49.942;11.570;2024-02-26T04:45:50;5.28;;;4.20;;
1370;SDS011;14306;49.942;11.570;2024-02-26T04:47:25;8.32;;;4.32;;
1370;SDS011;14306;49.942;11.570;2024-02-26T04:48:59;6.40;;;4.72;;
1370;SDS011;14306;49.942;11.570;2024-02-26T04:50:32;6.40;;;4.50;;
1370;SDS011;14306;49.942;11.570;2024-02-26T04:52:06;7.78;;;4.72;;
1370;SDS011;14306;49.942;11.570;2024-02-26T04:53:40;6.05;;;4.25;;
1370;SDS011;14306;49.942;11.570;2024-02-26T04:55:14;6.38;;;4.65;;
1370;SDS011;14306;49.942;11.570;2024-02-26T04:56:47;7.35;;;4.80;;
1370;SDS011;14306;49.942;11.570;2024-02-26T04:58:23;5.97;;;4.95;;
1370;SDS011;14306;49.942;11.570;2024-02-26T04:59:57;7.05;;;4.20;;
1370;SDS011;14306;49.942;11.570;2024-02-26T05:01:31;8.50;;;5.00;;
1370;SDS011;14306;49.942;11.570;2024-02-26T05:03:05;9.13;;;5.28;;
1370;SDS011;14306;49.942;11.570;2024-02-26T05:04:40;10.27;;;5.40;;
1370;SDS011;14306;49.942;11.570;2024-02-26T05:06:13;9.50;;;5.63;;
1370;SDS011;14306;49.942;11.570;2024-02-26T05:07:48;12.27;;;6.65;;
1370;SDS011;14306;49.942;11.570;2024-02-26T05:09:21;8.52;;;5.05;;
1370;SDS011;14306;49.942;11.570;2024-02-26T05:10:55;8.50;;;5.50;;
1370;SDS011;14306;49.942;11.570;2024-02-26T05:12:28;9.85;;;5.07;;
1370;SDS011;14306;49.942;11.570;2024-02-26T05:14:04;11.82;;;5.80;;
1370;SDS011;14306;49.942;11.570;2024-02-26T05:15:38;9.82;;;4.40;;
1370;SDS011;14306;49.942;11.570;2024-02-26T05:17:12;11.13;;;5.15;;
1370;SDS011;14306;49.942;11.570;2024-02-26T05:18:45;5.60;;;4.22;;
1370;SDS011;14306;49.942;11.570;2024-02-26T05:20:20;10.95;;;4.70;;
1370;SDS011;14306;49.942;11.570;2024-02-26T05:21:53;12.57;;;4.78;;
1370;SDS011;14306;49.942;11.570;2024-02-26T05:23:27;6.38;;;4.22;;
1370;SDS011;14306;49.942;11.570;2024-02-26T05:25:00;16.42;;;4.97;;
1370;SDS011;14306;49.942;11.570;2024-02-26T05:26:36;10.05;;;4.63;;
1370;SDS011;14306;49.942;11.570;2024-02-26T05:28:09;8.00;;;3.88;;
1370;SDS011;14306;49.942;11.570;2024-02-26T05:29:44;6.43;;;4.40;;
1370;SDS011;14306;49.942;11.570;2024-02-26T05:31:18;8.15;;;4.68;;
1370;SDS011;14306;49.942;11.570;2024-02-26T05:32:53;4.90;;;4.10;;
1370;SDS011;14306;49.942;11.570;2024-02-26T05:34:26;8.25;;;5.88;;
1370;SDS011;14306;49.942;11.570;2024-02-26T05:36:02;7.57;;;4.80;;
1370;SDS011;14306;49.942;11.570;2024-02-26T05:37:37;7.35;;;4.07;;
1370;SDS011;14306;49.942;11.570;2024-02-26T05:39:12;7.38;;;4.75;;
1370;SDS011;14306;49.942;11.570;2024-02-26T05:40:49;8.18;;;5.00;;
1370;SDS011;14306;49.942;11.570;2024-02-26T05:42:25;8.48;;;4.43;;
1370;SDS011;14306;49.942;11.570;2024-02-26T05:43:58;7.40;;;5.47;;
1370;SDS011;14306;49.942;11.570;2024-02-26T05:45:34;8.82;;;4.90;;
1370;SDS011;14306;49.942;11.570;2024-02-26T05:47:07;8.20;;;5.30;;
1370;SDS011;14306;49.942;11.570;2024-02-26T05:48:41;8.43;;;5.55;;
1370;SDS011;14306;49.942;11.570;2024-02-26T05:50:14;13.82;;;5.72;;
1370;SDS011;14306;49.942;11.570;2024-02-26T05:51:49;9.82;;;5.40;;
1370;SDS011;14306;49.942;11.570;2024-02-26T05:53:22;11.25;;;5.50;;
1370;SDS011;14306;49.942;11.570;2024-02-26T05:54:56;10.25;;;5.07;;
1370;SDS011;14306;49.942;11.570;2024-02-26T05:56:28;8.45;;;5.18;;
1370;SDS011;14306;49.942;11.570;2024-02-26T05:58:03;10.85;;;6.00;;
1370;SDS011;14306;49.942;11.570;2024-02-26T05:59:36;11.07;;;5.65;;
1370;SDS011;14306;49.942;11.570;2024-02-26T06:01:12;11.85;;;5.53;;
1370;SDS011;14306;49.942;11.570;2024-02-26T06:02:45;8.75;;;5.80;;
1370;SDS011;14306;49.942;11.570;2024-02-26T06:04:20;6.72;;;5.10;;
1370;SDS011;14306;49.942;11.570;2024-02-26T06:05:53;8.10;;;5.32;;
1370;SDS011;14306;49.942;11.570;2024-02-26T06:07:27;13.48;;;5.63;;
1370;SDS011;14306;49.942;11.570;2024-02-26T06:09:00;6.40;;;5.13;;
1370;SDS011;14306;49.942;11.570;2024-02-26T06:10:38;8.27;;;4.95;;
1370;SDS011;14306;49.942;11.570;2024-02-26T06:12:12;9.02;;;6.07;;
1370;SDS011;14306;49.942;11.570;2024-02-26T06:13:46;11.90;;;5.80;;
1370;SDS011;14306;49.942;11.570;2024-02-26T06:15:19;11.15;;;5.40;;
1370;SDS011;14306;49.942;11.570;2024-02-26T06:16:55;10.88;;;6.53;;
1370;SDS011;14306;49.942;11.570;2024-02-26T06:18:28;12.43;;;6.38;;
1370;SDS011;14306;49.942;11.570;2024-02-26T06:20:02;11.70;;;6.75;;
1370;SDS011;14306;49.942;11.570;2024-02-26T06:21:37;12.15;;;5.70;;
1370;SDS011;14306;49.942;11.570;2024-02-26T06:23:12;16.23;;;7.35;;
1370;SDS011;14306;49.942;11.570;2024-02-26T06:24:45;13.43;;;6.75;;
1370;SDS011;14306;49.942;11.570;2024-02-26T06:26:19;14.73;;;6.90;;
1370;SDS011;14306;49.942;11.570;2024-02-26T06:27:53;11.48;;;7.10;;
1370;SDS011;14306;49.942;11.570;2024-02-26T06:29:28;8.88;;;6.70;;
1370;SDS011;14306;49.942;11.570;2024-02-26T06:31:01;11.50;;;7.28;;
1370;SDS011;14306;49.942;11.570;2024-02-26T06:32:37;12.45;;;7.63;;
1370;SDS011;14306;49.942;11.570;2024-02-26T06:34:11;13.13;;;6.35;;
1370;SDS011;14306;49.942;11.570;2024-02-26T06:35:45;10.40;;;6.72;;
1370;SDS011;14306;49.942;11.570;2024-02-26T06:37:18;12.40;;;8.55;;
1370;SDS011;14306;49.942;11.570;2024-02-26T06:38:53;8.60;;;6.55;;
1370;SDS011;14306;49.942;11.570;2024-02-26T06:40:27;19.80;;;8.27;;
1370;SDS011;14306;49.942;11.570;2024-02-26T06:42:01;14.55;;;8.25;;
1370;SDS011;14306;49.942;11.570;2024-02-26T06:43:35;15.15;;;6.90;;
1370;SDS011;14306;49.942;11.570;2024-02-26T06:45:09;10.57;;;7.78;;
1370;SDS011;14306;49.942;11.570;2024-02-26T06:46:43;11.77;;;7.53;;
1370;SDS011;14306;49.942;11.570;2024-02-26T06:48:19;14.98;;;8.60;;
1370;SDS011;14306;49.942;11.570;2024-02-26T06:49:53;15.10;;;7.13;;
1370;SDS011;14306;49.942;11.570;2024-02-26T06:51:30;12.32;;;7.53;;
1370;SDS011;14306;49.942;11.570;2024-02-26T06:53:05;15.05;;;9.70;;
1370;SDS011;14306;49.942;11.570;2024-02-26T06:54:39;14.05;;;8.65;;
1370;SDS011;14306;49.942;11.570;2024-02-26T06:56:14;13.27;;;7.55;;
1370;SDS011;14306;49.942;11.570;2024-02-26T06:57:48;14.27;;;7.70;;
1370;SDS011;14306;49.942;11.570;2024-02-26T06:59:21;12.05;;;8.15;;
1370;SDS011;14306;49.942;11.570;2024-02-26T07:00:56;19.60;;;7.82;;
1370;SDS011;14306;49.942;11.570;2024-02-26T07:02:29;14.40;;;7.97;;
1370;SDS011;14306;49.942;11.570;2024-02-26T07:04:05;11.65;;;7.07;;
1370;SDS011;14306;49.942;11.570;2024-02-26T07:05:38;10.68;;;7.35;;
1370;SDS011;14306;49.942;11.570;2024-02-26T07:07:12;10.18;;;6.10;;
1370;SDS011;14306;49.942;11.570;2024-02-26T07:08:46;10.73;;;7.60;;
1370;SDS011;14306;49.942;11.570;2024-02-26T07:10:20;13.25;;;6.35;;
1370;SDS011;14306;49.942;11.570;2024-02-26T07:11:54;10.95;;;6.25;;
1370;SDS011;14306;49.942;11.570;2024-02-26T07:13:32;10.35;;;5.80;;
1370;SDS011;14306;49.942;11.570;2024-02-26T07:15:07;11.95;;;7.18;;
1370;SDS011;14306;49.942;11.570;2024-02-26T07:16:43;7.97;;;6.00;;
1370;SDS011;14306;49.942;11.570;2024-02-26T07:18:16;12.30;;;6.40;;
1370;SDS011;14306;49.942;11.570;2024-02-26T07:19:52;9.40;;;6.20;;
1370;SDS011;14306;49.942;11.570;2024-02-26T07:21:25;11.85;;;6.80;;
1370;SDS011;14306;49.942;11.570;2024-02-26T07:22:59;8.07;;;6.00;;
1370;SDS011;14306;49.942;11.570;2024-02-26T07:24:32;8.30;;;5.80;;
1370;SDS011;14306;49.942;11.570;2024-02-26T07:26:07;9.23;;;6.35;;
1370;SDS011;14306;49.942;11.570;2024-02-26T07:27:40;12.20;;;8.00;;
1370;SDS011;14306;49.942;11.570;2024-02-26T07:29:15;14.23;;;8.02;;
1370;SDS011;14306;49.942;11.570;2024-02-26T07:30:49;13.88;;;8.35;;
1370;SDS011;14306;49.942;11.570;2024-02-26T07:32:22;11.82;;;7.43;;
1370;SDS011;14306;49.942;11.570;2024-02-26T07:33:57;16.85;;;8.65;;
1370;SDS011;14306;49.942;11.570;2024-02-26T07:35:32;12.95;;;8.40;;
1370;SDS011;14306;49.942;11.570;2024-02-26T07:37:06;17.42;;;7.60;;
1370;SDS011;14306;49.942;11.570;2024-02-26T07:38:39;15.45;;;8.20;;
1370;SDS011;14306;49.942;11.570;2024-02-26T07:40:15;9.68;;;7.78;;
1370;SDS011;14306;49.942;11.570;2024-02-26T07:41:49;11.02;;;7.43;;
1370;SDS011;14306;49.942;11.570;2024-02-26T07:43:25;12.32;;;7.95;;
1370;SDS011;14306;49.942;11.570;2024-02-26T07:44:59;11.52;;;7.00;;
1370;SDS011;14306;49.942;11.570;2024-02-26T07:46:34;14.68;;;7.65;;
1370;SDS011;14306;49.942;11.570;2024-02-26T07:48:07;12.02;;;7.30;;
1370;SDS011;14306;49.942;11.570;2024-02-26T07:49:42;18.15;;;8.25;;
1370;SDS011;14306;49.942;11.570;2024-02-26T07:51:16;12.05;;;7.03;;
1370;SDS011;14306;49.942;11.570;2024-02-26T07:52:52;12.52;;;7.75;;
1370;SDS011;14306;49.942;11.570;2024-02-26T07:54:25;13.70;;;8.93;;
1370;SDS011;14306;49.942;11.570;2024-02-26T07:55:59;12.15;;;7.07;;
1370;SDS011;14306;49.942;11.570;2024-02-26T07:57:33;16.30;;;7.43;;
1370;SDS011;14306;49.942;11.570;2024-02-26T07:59:07;14.32;;;7.45;;
1370;SDS011;14306;49.942;11.570;2024-02-26T08:00:42;12.23;;;7.50;;
1370;SDS011;14306;49.942;11.570;2024-02-26T08:02:16;15.30;;;9.20;;
1370;SDS011;14306;49.942;11.570;2024-02-26T08:03:50;10.10;;;7.05;;
1370;SDS011;14306;49.942;11.570;2024-02-26T08:05:24;11.50;;;6.50;;
1370;SDS011;14306;49.942;11.570;2024-02-26T08:06:59;10.25;;;6.60;;
1370;SDS011;14306;49.942;11.570;2024-02-26T08:08:34;13.25;;;7.45;;
1370;SDS011;14306;49.942;11.570;2024-02-26T08:10:07;23.83;;;8.73;;
1370;SDS011;14306;49.942;11.570;2024-02-26T08:11:42;13.77;;;6.50;;
1370;SDS011;14306;49.942;11.570;2024-02-26T08:13:15;10.63;;;6.57;;
1370;SDS011;14306;49.942;11.570;2024-02-26T08:14:49;8.15;;;5.85;;
1370;SDS011;14306;49.942;11.570;2024-02-26T08:16:24;10.90;;;6.88;;
1370;SDS011;14306;49.942;11.570;2024-02-26T08:17:59;13.88;;;7.22;;
1370;SDS011;14306;49.942;11.570;2024-02-26T08:19:35;13.05;;;6.53;;
1370;SDS011;14306;49.942;11.570;2024-02-26T08:21:09;9.30;;;7.28;;
1370;SDS011;14306;49.942;11.570;2024-02-26T08:22:45;13.95;;;7.45;;
1370;SDS011;14306;49.942;11.570;2024-02-26T08:24:18;10.80;;;6.95;;
1370;SDS011;14306;49.942;11.570;2024-02-26T08:25:52;9.15;;;5.55;;
1370;SDS011;14306;49.942;11.570;2024-02-26T08:27:25;12.80;;;7.78;;
1370;SDS011;14306;49.942;11.570;2024-02-26T08:28:59;13.98;;;8.52;;
1370;SDS011;14306;49.942;11.570;2024-02-26T08:30:33;12.00;;;10.57;;
1370;SDS011;14306;49.942;11.570;2024-02-26T08:32:07;13.60;;;10.32;;
1370;SDS011;14306;49.942;11.570;2024-02-26T08:33:41;16.42;;;12.23;;
1370;SDS011;14306;49.942;11.570;2024-02-26T08:35:15;19.08;;;11.90;;
1370;SDS011;14306;49.942;11.570;2024-02-26T08:36:50;16.77;;;11.48;;
1370;SDS011;14306;49.942;11.570;2024-02-26T08:38:25;19.98;;;9.80;;
1370;SDS011;14306;49.942;11.570;2024-02-26T08:39:59;10.77;;;7.53;;
1370;SDS011;14306;49.942;11.570;2024-02-26T08:41:37;10.45;;;7.45;;
1370;SDS011;14306;49.942;11.570;2024-02-26T08:43:12;11.80;;;7.25;;
1370;SDS011;14306;49.942;11.570;2024-02-26T08:44:46;14.43;;;7.88;;
1370;SDS011;14306;49.942;11.570;2024-02-26T08:46:19;10.88;;;8.43;;
1370;SDS011;14306;49.942;11.570;2024-02-26T08:47:54;13.00;;;8.38;;
1370;SDS011;14306;49.942;11.570;2024-02-26T08:49:27;11.60;;;7.20;;
1370;SDS011;14306;49.942;11.570;2024-02-26T08:51:04;13.48;;;7.35;;
1370;SDS011;14306;49.942;11.570;2024-02-26T08:52:38;12.45;;;8.63;;
1370;SDS011;14306;49.942;11.570;2024-02-26T08:54:14;13.13;;;8.23;;
1370;SDS011;14306;49.942;11.570;2024-02-26T08:55:47;13.88;;;8.63;;
1370;SDS011;14306;49.942;11.570;2024-02-26T08:57:21;9.60;;;7.28;;
1370;SDS011;14306;49.942;11.570;2024-02-26T08:58:54;11.82;;;7.97;;
1370;SDS011;14306;49.942;11.570;2024-02-26T09:00:29;15.57;;;7.82;;
1370;SDS011;14306;49.942;11.570;2024-02-26T09:02:04;9.05;;;6.50;;
1370;SDS011;14306;49.942;11.570;2024-02-26T09:03:38;11.60;;;6.95;;
1370;SDS011;14306;49.942;11.570;2024-02-26T09:05:13;11.88;;;7.32;;
1370;SDS011;14306;49.942;11.570;2024-02-26T09:06:46;8.75;;;5.70;;
1370;SDS011;14306;49.942;11.570;2024-02-26T09:08:21;8.63;;;5.47;;
1370;SDS011;14306;49.942;11.570;2024-02-26T09:09:57;8.43;;;6.13;;
1370;SDS011;14306;49.942;11.570;2024-02-26T09:11:30;7.95;;;5.43;;
1370;SDS011;14306;49.942;11.570;2024-02-26T09:13:04;10.52;;;5.65;;
1370;SDS011;14306;49.942;11.570;2024-02-26T09:14:40;8.43;;;5.32;;
1370;SDS011;14306;49.942;11.570;2024-02-26T09:16:14;7.60;;;5.60;;
1370;SDS011;14306;49.942;11.570;2024-02-26T09:17:48;9.32;;;5.60;;
1370;SDS011;14306;49.942;11.570;2024-02-26T09:19:23;8.13;;;5.30;;
1370;SDS011;14306;49.942;11.570;2024-02-26T09:20:56;14.10;;;7.43;;
1370;SDS011;14306;49.942;11.570;2024-02-26T09:22:30;9.52;;;5.57;;
1370;SDS011;14306;49.942;11.570;2024-02-26T09:24:04;10.48;;;5.82;;
1370;SDS011;14306;49.942;11.570;2024-02-26T09:25:41;13.80;;;6.00;;